createdAt,value
2019-01-29T00:00:18.346Z,95.78
2019-01-29T00:01:18.278Z,95.36
2019-01-29T00:02:18.272Z,95.36
2019-01-29T00:03:18.254Z,95.25
2019-01-29T00:04:18.255Z,95.62
2019-01-29T00:05:18.276Z,95.25
2019-01-29T00:06:18.224Z,94.84
2019-01-29T00:07:18.287Z,94.84
2019-01-29T00:08:18.202Z,94.63
2019-01-29T00:09:18.214Z,95.15
2019-01-29T00:10:18.186Z,95.46
2019-01-29T00:11:18.171Z,95.25
2019-01-29T00:12:18.151Z,95.15
2019-01-29T00:13:18.151Z,95.36
2019-01-29T00:14:18.130Z,95.78
2019-01-29T00:15:18.190Z,95.46
2019-01-29T00:16:18.187Z,95.10
2019-01-29T00:17:18.109Z,95.73
2019-01-29T00:18:18.141Z,95.62
2019-01-29T00:19:18.091Z,94.48
2019-01-29T00:20:18.081Z,94.48
2019-01-29T00:21:18.078Z,94.79
2019-01-29T00:22:18.051Z,94.48
2019-01-29T00:23:18.030Z,94.63
2019-01-29T00:24:18.070Z,94.94
2019-01-29T00:25:18.023Z,94.52
2019-01-29T00:26:18.050Z,94.58
2019-01-29T00:27:18.013Z,94.79
2019-01-29T00:28:17.981Z,94.48
2019-01-29T00:29:17.962Z,94.27
2019-01-29T00:30:17.966Z,94.27
2019-01-29T00:31:17.962Z,94.37
2019-01-29T00:32:17.952Z,93.54
2019-01-29T00:33:17.980Z,94.21
2019-01-29T00:34:17.921Z,94.37
2019-01-29T00:35:17.938Z,94.42
2019-01-29T00:36:17.889Z,94.31
2019-01-29T00:37:17.879Z,94.21
2019-01-29T00:38:17.915Z,94.27
2019-01-29T00:39:17.858Z,94.31
2019-01-29T00:40:17.868Z,94.37
2019-01-29T00:41:17.842Z,94.42
2019-01-29T00:42:17.834Z,94.37
2019-01-29T00:43:17.814Z,93.90
2019-01-29T00:44:17.880Z,94.42
2019-01-29T00:45:17.787Z,94.31
2019-01-29T00:46:17.774Z,94.31
2019-01-29T00:47:17.768Z,94.63
2019-01-29T00:48:17.818Z,94.42
2019-01-29T00:49:17.757Z,94.52
2019-01-29T00:50:17.746Z,94.21
2019-01-29T00:51:17.719Z,94.42
2019-01-29T00:52:17.721Z,94.52
2019-01-29T00:53:17.764Z,94.63
2019-01-29T00:54:17.700Z,94.84
2019-01-29T00:55:17.699Z,94.31
2019-01-29T00:56:17.683Z,94.63
2019-01-29T00:57:17.651Z,94.63
2019-01-29T00:58:17.647Z,94.63
2019-01-29T00:59:17.630Z,94.21
2019-01-29T01:00:17.622Z,94.57
2019-01-29T01:01:17.691Z,94.35
2019-01-29T01:02:17.604Z,94.46
2019-01-29T01:03:17.585Z,94.88
2019-01-29T01:04:17.578Z,94.88
2019-01-29T01:05:17.566Z,94.57
2019-01-29T01:06:17.552Z,94.52
2019-01-29T01:07:17.608Z,94.88
2019-01-29T01:08:17.533Z,94.35
2019-01-29T01:09:17.535Z,94.25
2019-01-29T01:10:17.505Z,94.78
2019-01-29T01:11:17.512Z,94.15
2019-01-29T01:12:17.497Z,94.67
2019-01-29T01:13:17.489Z,94.35
2019-01-29T01:14:17.467Z,94.46
2019-01-29T01:15:17.453Z,94.57
2019-01-29T01:16:17.445Z,94.67
2019-01-29T01:17:17.472Z,94.15
2019-01-29T01:18:17.426Z,94.71
2019-01-29T01:19:17.431Z,94.78
2019-01-29T01:20:17.407Z,95.23
2019-01-29T01:21:17.389Z,95.34
2019-01-29T01:22:17.391Z,95.50
2019-01-29T01:23:17.360Z,95.13
2019-01-29T01:24:17.390Z,94.61
2019-01-29T01:25:17.428Z,95.13
2019-01-29T01:26:17.329Z,95.55
2019-01-29T01:27:17.319Z,95.86
2019-01-29T01:28:17.346Z,95.65
2019-01-29T01:29:17.294Z,95.55
2019-01-29T01:30:17.306Z,95.19
2019-01-29T01:31:17.284Z,95.23
2019-01-29T01:32:17.271Z,94.71
2019-01-29T01:33:17.284Z,94.61
2019-01-29T01:34:17.239Z,94.57
2019-01-29T01:35:17.230Z,94.61
2019-01-29T01:36:17.238Z,94.92
2019-01-29T01:37:17.212Z,94.61
2019-01-29T01:38:17.197Z,94.71
2019-01-29T01:39:17.219Z,94.50
2019-01-29T01:40:17.173Z,94.61
2019-01-29T01:41:17.175Z,95.23
2019-01-29T01:42:17.158Z,94.82
2019-01-29T01:43:17.139Z,95.23
2019-01-29T01:44:17.144Z,95.55
2019-01-29T01:45:17.118Z,95.34
2019-01-29T01:46:17.138Z,95.76
2019-01-29T01:47:17.129Z,95.65
2019-01-29T01:48:17.084Z,95.65
2019-01-29T01:49:17.076Z,95.50
2019-01-29T01:50:17.065Z,95.13
2019-01-29T01:51:17.064Z,95.65
2019-01-29T01:52:17.084Z,95.34
2019-01-29T01:53:17.033Z,95.34
2019-01-29T01:54:17.074Z,95.76
2019-01-29T01:55:17.034Z,95.86
2019-01-29T01:56:25.981Z,95.44
2019-01-29T01:57:17.093Z,95.72
2019-01-29T01:58:17.085Z,95.92
2019-01-29T01:59:17.406Z,95.86
2019-01-29T02:00:17.011Z,95.76
2019-01-29T02:01:16.951Z,95.61
2019-01-29T02:02:16.932Z,95.44
2019-01-29T02:03:16.943Z,95.61
2019-01-29T02:04:16.973Z,95.86
2019-01-29T02:05:16.908Z,95.61
2019-01-29T02:06:16.898Z,95.29
2019-01-29T02:07:16.935Z,95.44
2019-01-29T02:08:16.867Z,95.65
2019-01-29T02:09:16.877Z,95.86
2019-01-29T02:10:16.841Z,95.65
2019-01-29T02:11:16.842Z,95.65
2019-01-29T02:12:16.830Z,95.55
2019-01-29T02:13:16.815Z,95.44
2019-01-29T02:14:16.851Z,95.44
2019-01-29T02:15:16.832Z,95.28
2019-01-29T02:16:16.775Z,96.11
2019-01-29T02:17:16.760Z,96.11
2019-01-29T02:18:16.797Z,95.80
2019-01-29T02:19:16.738Z,95.38
2019-01-29T02:20:16.802Z,95.49
2019-01-29T02:21:16.718Z,95.80
2019-01-29T02:22:16.760Z,96.22
2019-01-29T02:23:16.694Z,96.22
2019-01-29T02:24:16.703Z,96.33
2019-01-29T02:25:16.671Z,96.22
2019-01-29T02:26:16.671Z,96.01
2019-01-29T02:27:16.655Z,95.70
2019-01-29T02:28:16.658Z,95.80
2019-01-29T02:29:16.630Z,95.80
2019-01-29T02:30:16.661Z,95.90
2019-01-29T02:31:16.633Z,96.01
2019-01-29T02:32:16.596Z,95.49
2019-01-29T02:33:16.584Z,96.11
2019-01-29T02:34:16.572Z,96.47
2019-01-29T02:35:16.643Z,96.22
2019-01-29T02:36:16.549Z,96.05
2019-01-29T02:37:16.559Z,95.80
2019-01-29T02:38:16.524Z,95.95
2019-01-29T02:39:16.525Z,96.22
2019-01-29T02:40:16.508Z,96.01
2019-01-29T02:41:16.546Z,95.90
2019-01-29T02:42:16.480Z,96.22
2019-01-29T02:43:16.489Z,96.11
2019-01-29T02:44:16.457Z,96.11
2019-01-29T02:45:16.448Z,96.11
2019-01-29T02:46:16.470Z,96.47
2019-01-29T02:47:16.426Z,96.43
2019-01-29T02:48:16.486Z,96.11
2019-01-29T02:49:16.431Z,96.43
2019-01-29T02:50:16.420Z,96.53
2019-01-29T02:51:17.931Z,96.16
2019-01-29T02:52:16.374Z,96.22
2019-01-29T02:53:18.368Z,96.47
2019-01-29T02:54:16.352Z,96.33
2019-01-29T02:55:16.369Z,96.53
2019-01-29T02:56:16.372Z,96.22
2019-01-29T02:57:16.329Z,96.33
2019-01-29T02:58:16.303Z,96.01
2019-01-29T02:59:16.292Z,96.33
2019-01-29T03:00:16.297Z,95.90
2019-01-29T03:01:16.295Z,96.33
2019-01-29T03:02:16.330Z,96.33
2019-01-29T03:03:16.256Z,96.33
2019-01-29T03:04:16.245Z,96.07
2019-01-29T03:05:16.239Z,96.33
2019-01-29T03:06:16.224Z,96.17
2019-01-29T03:07:16.232Z,96.43
2019-01-29T03:08:16.196Z,96.53
2019-01-29T03:09:16.235Z,96.43
2019-01-29T03:10:16.182Z,96.43
2019-01-29T03:11:16.189Z,96.11
2019-01-29T03:12:16.458Z,96.53
2019-01-29T03:13:16.138Z,96.49
2019-01-29T03:14:16.143Z,96.43
2019-01-29T03:15:16.122Z,96.28
2019-01-29T03:16:16.182Z,96.43
2019-01-29T03:17:16.106Z,96.53
2019-01-29T03:18:16.088Z,96.33
2019-01-29T03:19:16.131Z,96.53
2019-01-29T03:20:16.072Z,96.22
2019-01-29T03:21:16.110Z,96.22
2019-01-29T03:22:16.086Z,96.64
2019-01-29T03:23:16.033Z,95.90
2019-01-29T03:24:16.034Z,96.33
2019-01-29T03:25:16.040Z,96.33
2019-01-29T03:26:16.018Z,96.43
2019-01-29T03:27:16.002Z,96.43
2019-01-29T03:28:15.988Z,96.28
2019-01-29T03:29:15.971Z,96.28
2019-01-29T03:30:16.020Z,95.97
2019-01-29T03:31:15.988Z,95.90
2019-01-29T03:32:15.938Z,96.22
2019-01-29T03:33:15.921Z,95.90
2019-01-29T03:34:15.946Z,95.80
2019-01-29T03:35:15.891Z,96.01
2019-01-29T03:36:15.907Z,96.11
2019-01-29T03:37:15.870Z,95.86
2019-01-29T03:38:15.909Z,96.01
2019-01-29T03:39:15.849Z,96.01
2019-01-29T03:40:15.841Z,95.70
2019-01-29T03:41:15.837Z,95.90
2019-01-29T03:42:15.861Z,96.11
2019-01-29T03:43:15.802Z,96.43
2019-01-29T03:44:15.817Z,95.80
2019-01-29T03:45:15.800Z,96.11
2019-01-29T03:46:15.790Z,96.22
2019-01-29T03:47:15.770Z,96.22
2019-01-29T03:48:15.797Z,96.11
2019-01-29T03:49:15.738Z,96.01
2019-01-29T03:50:15.740Z,95.80
2019-01-29T03:51:15.734Z,95.90
2019-01-29T03:52:15.708Z,95.74
2019-01-29T03:53:15.697Z,95.53
2019-01-29T03:54:15.730Z,95.70
2019-01-29T03:55:15.672Z,95.70
2019-01-29T03:56:15.668Z,95.74
2019-01-29T03:57:15.686Z,96.16
2019-01-29T03:58:15.659Z,95.74
2019-01-29T03:59:15.644Z,95.53
2019-01-29T04:00:15.649Z,96.05
2019-01-29T04:01:15.603Z,95.74
2019-01-29T04:02:15.590Z,95.74
2019-01-29T04:03:15.606Z,95.53
2019-01-29T04:04:15.568Z,95.53
2019-01-29T04:05:15.565Z,95.74
2019-01-29T04:06:15.625Z,95.95
2019-01-29T04:07:15.536Z,95.95
2019-01-29T04:08:15.534Z,95.84
2019-01-29T04:09:15.514Z,95.95
2019-01-29T04:10:16.122Z,95.74
2019-01-29T04:11:15.501Z,95.84
2019-01-29T04:12:15.498Z,95.84
2019-01-29T04:13:15.513Z,95.53
2019-01-29T04:14:15.498Z,95.43
2019-01-29T04:15:15.463Z,95.74
2019-01-29T04:16:15.449Z,95.74
2019-01-29T04:17:15.463Z,95.84
2019-01-29T04:18:15.424Z,95.74
2019-01-29T04:19:15.434Z,95.64
2019-01-29T04:20:15.391Z,95.43
2019-01-29T04:21:15.400Z,95.43
2019-01-29T04:22:15.386Z,95.53
2019-01-29T04:23:15.371Z,95.84
2019-01-29T04:24:15.353Z,95.74
2019-01-29T04:25:15.366Z,95.43
2019-01-29T04:26:15.338Z,95.64
2019-01-29T04:27:15.336Z,95.53
2019-01-29T04:28:15.333Z,95.74
2019-01-29T04:29:15.298Z,95.74
2019-01-29T04:30:15.312Z,95.74
2019-01-29T04:31:15.275Z,95.95
2019-01-29T04:32:15.265Z,96.05
2019-01-29T04:33:15.281Z,95.84
2019-01-29T04:34:15.264Z,95.53
2019-01-29T04:35:15.275Z,95.84
2019-01-29T04:36:15.224Z,95.53
2019-01-29T04:37:15.217Z,95.74
2019-01-29T04:38:15.203Z,95.74
2019-01-29T04:39:15.241Z,96.05
2019-01-29T04:40:15.175Z,95.43
2019-01-29T04:41:15.175Z,95.64
2019-01-29T04:42:15.151Z,95.95
2019-01-29T04:43:15.151Z,95.74
2019-01-29T04:44:15.156Z,95.74
2019-01-29T04:45:15.149Z,95.64
2019-01-29T04:46:15.110Z,95.74
2019-01-29T04:47:15.167Z,95.53
2019-01-29T04:48:15.097Z,95.32
2019-01-29T04:49:15.069Z,95.95
2019-01-29T04:50:15.074Z,95.74
2019-01-29T04:51:15.088Z,95.95
2019-01-29T04:52:15.049Z,95.64
2019-01-29T04:53:15.028Z,95.64
2019-01-29T04:54:15.038Z,95.74
2019-01-29T04:55:15.023Z,95.53
2019-01-29T04:56:15.045Z,95.74
2019-01-29T04:57:14.986Z,95.43
2019-01-29T04:58:14.972Z,95.43
2019-01-29T04:59:14.960Z,95.53
2019-01-29T05:00:14.951Z,95.53
2019-01-29T05:01:14.975Z,95.32
2019-01-29T05:02:14.980Z,95.43
2019-01-29T05:03:14.935Z,95.47
2019-01-29T05:04:14.950Z,95.53
2019-01-29T05:05:14.894Z,95.43
2019-01-29T05:06:14.881Z,96.10
2019-01-29T05:07:14.870Z,95.99
2019-01-29T05:08:14.869Z,96.10
2019-01-29T05:09:14.874Z,95.89
2019-01-29T05:10:14.836Z,95.74
2019-01-29T05:11:14.826Z,95.57
2019-01-29T05:12:14.814Z,95.78
2019-01-29T05:13:14.818Z,95.47
2019-01-29T05:14:14.792Z,95.78
2019-01-29T05:15:14.813Z,95.78
2019-01-29T05:16:14.768Z,95.89
2019-01-29T05:17:14.760Z,95.99
2019-01-29T05:18:14.751Z,95.99
2019-01-29T05:19:14.748Z,95.84
2019-01-29T05:20:14.726Z,95.68
2019-01-29T05:21:14.756Z,95.78
2019-01-29T05:22:14.705Z,95.78
2019-01-29T05:23:14.701Z,96.20
2019-01-29T05:24:14.692Z,96.26
2019-01-29T05:25:14.668Z,95.74
2019-01-29T05:26:14.659Z,95.74
2019-01-29T05:27:14.688Z,95.53
2019-01-29T05:28:14.636Z,95.78
2019-01-29T05:29:14.755Z,95.78
2019-01-29T05:30:14.611Z,96.10
2019-01-29T05:31:14.602Z,95.74
2019-01-29T05:32:14.593Z,95.78
2019-01-29T05:33:14.642Z,95.78
2019-01-29T05:34:14.571Z,95.95
2019-01-29T05:35:14.568Z,95.74
2019-01-29T05:36:14.561Z,95.74
2019-01-29T05:37:14.545Z,95.47
2019-01-29T05:38:14.525Z,95.57
2019-01-29T05:39:14.583Z,95.78
2019-01-29T05:40:14.522Z,95.89
2019-01-29T05:41:14.494Z,95.89
2019-01-29T05:42:14.497Z,95.57
2019-01-29T05:43:14.469Z,95.89
2019-01-29T05:44:14.459Z,95.68
2019-01-29T05:45:14.451Z,95.68
2019-01-29T05:46:14.473Z,95.78
2019-01-29T05:47:14.426Z,95.37
2019-01-29T05:48:14.429Z,95.68
2019-01-29T05:49:14.403Z,94.84
2019-01-29T05:50:14.406Z,95.47
2019-01-29T05:51:14.389Z,95.37
2019-01-29T05:52:14.376Z,95.72
2019-01-29T05:53:14.414Z,95.62
2019-01-29T05:54:16.384Z,95.47
2019-01-29T05:55:14.338Z,95.51
2019-01-29T05:56:14.326Z,95.47
2019-01-29T05:57:14.317Z,95.47
2019-01-29T05:58:14.304Z,95.83
2019-01-29T05:59:14.345Z,95.83
2019-01-29T06:00:14.298Z,95.62
2019-01-29T06:01:14.273Z,95.57
2019-01-29T06:02:14.262Z,95.72
2019-01-29T06:03:14.250Z,95.83
2019-01-29T06:04:14.235Z,95.78
2019-01-29T06:05:14.286Z,95.83
2019-01-29T06:06:14.241Z,95.57
2019-01-29T06:07:14.200Z,95.78
2019-01-29T06:08:14.195Z,95.93
2019-01-29T06:09:14.278Z,95.72
2019-01-29T06:10:14.173Z,95.78
2019-01-29T06:11:14.157Z,95.83
2019-01-29T06:12:14.187Z,96.14
2019-01-29T06:13:14.134Z,95.78
2019-01-29T06:14:14.128Z,95.83
2019-01-29T06:15:14.112Z,95.78
2019-01-29T06:16:14.102Z,95.72
2019-01-29T06:17:14.105Z,95.51
2019-01-29T06:18:14.142Z,95.93
2019-01-29T06:19:14.077Z,95.83
2019-01-29T06:20:14.058Z,96.35
2019-01-29T06:21:14.046Z,96.14
2019-01-29T06:22:14.035Z,96.20
2019-01-29T06:23:14.046Z,96.04
2019-01-29T06:24:14.015Z,96.14
2019-01-29T06:25:14.003Z,96.04
2019-01-29T06:26:14.045Z,96.04
2019-01-29T06:27:13.980Z,95.72
2019-01-29T06:28:13.973Z,95.83
2019-01-29T06:29:13.976Z,96.25
2019-01-29T06:30:13.946Z,96.04
2019-01-29T06:31:13.935Z,96.14
2019-01-29T06:32:13.982Z,96.14
2019-01-29T06:33:13.910Z,96.04
2019-01-29T06:34:13.920Z,96.25
2019-01-29T06:35:13.983Z,96.56
2019-01-29T06:36:13.910Z,96.25
2019-01-29T06:37:13.943Z,96.45
2019-01-29T06:38:13.862Z,96.25
2019-01-29T06:39:13.898Z,96.35
2019-01-29T06:40:13.840Z,96.35
2019-01-29T06:41:13.840Z,96.35
2019-01-29T06:42:13.895Z,96.56
2019-01-29T06:43:13.835Z,96.56
2019-01-29T06:44:13.791Z,96.56
2019-01-29T06:45:13.782Z,95.98
2019-01-29T06:46:13.769Z,95.98
2019-01-29T06:47:13.780Z,96.77
2019-01-29T06:48:13.748Z,96.66
2019-01-29T06:49:13.786Z,96.77
2019-01-29T06:50:13.725Z,96.88
2019-01-29T06:51:13.716Z,97.23
2019-01-29T06:52:13.703Z,97.19
2019-01-29T06:53:13.715Z,97.39
2019-01-29T06:54:13.689Z,97.29
2019-01-29T06:55:13.670Z,97.39
2019-01-29T06:56:13.755Z,97.29
2019-01-29T06:57:13.644Z,96.88
2019-01-29T06:58:13.656Z,97.19
2019-01-29T06:59:13.630Z,96.66
2019-01-29T07:00:13.642Z,97.29
2019-01-29T07:01:13.638Z,97.19
2019-01-29T07:02:13.597Z,97.29
2019-01-29T07:03:13.587Z,97.19
2019-01-29T07:04:13.587Z,97.29
2019-01-29T07:05:13.582Z,97.19
2019-01-29T07:06:13.582Z,97.50
2019-01-29T07:07:13.542Z,97.50
2019-01-29T07:08:13.557Z,97.50
2019-01-29T07:09:13.564Z,97.92
2019-01-29T07:10:13.521Z,97.92
2019-01-29T07:11:13.551Z,97.19
2019-01-29T07:12:13.483Z,97.81
2019-01-29T07:13:13.473Z,97.81
2019-01-29T07:14:13.456Z,97.61
2019-01-29T07:15:13.480Z,97.61
2019-01-29T07:16:13.506Z,97.71
2019-01-29T07:17:13.425Z,97.71
2019-01-29T07:18:13.412Z,98.02
2019-01-29T07:19:13.405Z,97.81
2019-01-29T07:20:13.391Z,98.02
2019-01-29T07:21:13.392Z,97.67
2019-01-29T07:22:13.432Z,97.39
2019-01-29T07:23:13.368Z,97.19
2019-01-29T07:24:13.353Z,97.45
2019-01-29T07:25:13.337Z,97.25
2019-01-29T07:26:13.346Z,97.50
2019-01-29T07:27:13.324Z,97.35
2019-01-29T07:28:13.512Z,97.61
2019-01-29T07:29:13.366Z,97.25
2019-01-29T07:30:13.284Z,97.45
2019-01-29T07:31:13.269Z,97.45
2019-01-29T07:32:13.277Z,97.45
2019-01-29T07:33:13.251Z,97.56
2019-01-29T07:34:13.237Z,97.56
2019-01-29T07:35:13.226Z,97.45
2019-01-29T07:36:13.278Z,97.88
2019-01-29T07:37:21.623Z,97.67
2019-01-29T07:38:14.214Z,98.04
2019-01-29T07:39:13.189Z,97.83
2019-01-29T07:40:13.323Z,97.77
2019-01-29T07:41:13.161Z,97.56
2019-01-29T07:42:13.151Z,97.41
2019-01-29T07:43:13.330Z,97.20
2019-01-29T07:44:13.147Z,97.25
2019-01-29T07:45:13.113Z,97.41
2019-01-29T07:46:13.103Z,97.62
2019-01-29T07:47:13.095Z,97.94
2019-01-29T07:48:13.079Z,97.83
2019-01-29T07:49:13.116Z,97.83
2019-01-29T07:50:13.059Z,97.62
2019-01-29T07:51:13.053Z,97.83
2019-01-29T07:52:13.049Z,97.94
2019-01-29T07:53:13.034Z,97.72
2019-01-29T07:54:13.016Z,97.72
2019-01-29T07:55:13.069Z,97.72
2019-01-29T07:56:13.007Z,97.62
2019-01-29T07:57:12.983Z,97.72
2019-01-29T07:58:12.969Z,97.94
2019-01-29T07:59:12.958Z,97.83
2019-01-29T08:00:12.982Z,97.72
2019-01-29T08:01:12.950Z,97.83
2019-01-29T08:02:12.993Z,97.72
2019-01-29T08:03:12.913Z,97.94
2019-01-29T08:04:12.906Z,97.52
2019-01-29T08:05:12.933Z,97.94
2019-01-29T08:06:12.881Z,97.62
2019-01-29T08:07:12.886Z,97.58
2019-01-29T08:08:12.859Z,97.05
2019-01-29T08:09:12.867Z,97.27
2019-01-29T08:10:12.835Z,97.47
2019-01-29T08:11:12.836Z,97.27
2019-01-29T08:12:12.817Z,97.68
2019-01-29T08:13:12.816Z,97.43
2019-01-29T08:14:12.803Z,96.84
2019-01-29T08:15:12.794Z,97.53
2019-01-29T08:16:12.768Z,97.58
2019-01-29T08:17:12.861Z,97.37
2019-01-29T08:18:12.746Z,97.32
2019-01-29T08:19:12.747Z,97.47
2019-01-29T08:20:12.741Z,97.16
2019-01-29T08:21:12.716Z,96.53
2019-01-29T08:22:12.705Z,97.16
2019-01-29T08:23:12.745Z,97.37
2019-01-29T08:24:12.690Z,97.01
2019-01-29T08:25:12.683Z,97.22
2019-01-29T08:26:12.658Z,97.43
2019-01-29T08:27:12.649Z,97.43
2019-01-29T08:28:12.634Z,97.27
2019-01-29T08:29:12.673Z,97.47
2019-01-29T08:30:12.615Z,97.43
2019-01-29T08:31:12.618Z,97.32
2019-01-29T08:32:12.594Z,96.80
2019-01-29T08:33:12.577Z,97.53
2019-01-29T08:34:12.569Z,97.47
2019-01-29T08:35:12.598Z,97.43
2019-01-29T08:36:12.551Z,97.43
2019-01-29T08:37:12.548Z,97.64
2019-01-29T08:38:12.528Z,97.32
2019-01-29T08:39:12.530Z,97.32
2019-01-29T08:40:12.505Z,97.53
2019-01-29T08:41:12.537Z,97.11
2019-01-29T08:42:12.481Z,97.11
2019-01-29T08:43:12.485Z,96.80
2019-01-29T08:44:12.458Z,97.43
2019-01-29T08:45:12.467Z,97.53
2019-01-29T08:46:12.439Z,97.32
2019-01-29T08:47:12.422Z,96.91
2019-01-29T08:48:12.466Z,96.80
2019-01-29T08:49:12.424Z,96.80
2019-01-29T08:50:12.398Z,97.01
2019-01-29T08:51:12.382Z,96.70
2019-01-29T08:52:12.368Z,96.38
2019-01-29T08:53:12.358Z,96.34
2019-01-29T08:54:12.375Z,96.86
2019-01-29T08:55:12.358Z,96.66
2019-01-29T08:56:12.322Z,96.34
2019-01-29T08:57:12.313Z,95.92
2019-01-29T08:58:12.305Z,96.13
2019-01-29T08:59:12.286Z,96.28
2019-01-29T09:00:12.277Z,96.03
2019-01-29T09:01:12.330Z,96.23
2019-01-29T09:02:12.256Z,95.98
2019-01-29T09:03:12.247Z,96.13
2019-01-29T09:04:12.284Z,95.72
2019-01-29T09:05:12.237Z,95.29
2019-01-29T09:06:12.216Z,95.29
2019-01-29T09:07:12.237Z,95.46
2019-01-29T09:08:13.249Z,94.84
2019-01-29T09:09:12.181Z,94.27
2019-01-29T09:10:12.171Z,94.37
2019-01-29T09:11:12.158Z,93.54
2019-01-29T09:12:12.205Z,93.85
2019-01-29T09:13:12.182Z,93.44
2019-01-29T09:14:12.125Z,93.44
2019-01-29T09:15:12.112Z,93.18
2019-01-29T09:16:12.098Z,93.18
2019-01-29T09:17:12.089Z,93.12
2019-01-29T09:18:12.098Z,92.71
2019-01-29T09:19:12.116Z,92.91
2019-01-29T09:20:12.058Z,93.33
2019-01-29T09:21:12.044Z,93.44
2019-01-29T09:22:12.034Z,93.54
2019-01-29T09:23:12.022Z,94.17
2019-01-29T09:24:12.026Z,93.85
2019-01-29T09:25:19.613Z,92.91
2019-01-29T09:26:12.989Z,93.33
2019-01-29T09:27:11.977Z,93.44
2019-01-29T09:28:11.966Z,93.54
2019-01-29T09:29:17.584Z,93.23
2019-01-29T09:30:12.957Z,93.29
2019-01-29T09:31:11.953Z,93.75
2019-01-29T09:32:11.922Z,92.56
2019-01-29T09:33:11.926Z,92.81
2019-01-29T09:34:11.900Z,92.50
2019-01-29T09:35:11.893Z,92.50
2019-01-29T09:36:11.881Z,92.60
2019-01-29T09:37:11.904Z,92.60
2019-01-29T09:38:11.857Z,92.97
2019-01-29T09:39:11.857Z,92.46
2019-01-29T09:40:11.833Z,92.21
2019-01-29T09:41:11.826Z,92.21
2019-01-29T09:42:11.827Z,92.10
2019-01-29T09:43:11.804Z,91.37
2019-01-29T09:44:11.830Z,91.37
2019-01-29T09:45:11.779Z,91.22
2019-01-29T09:46:11.783Z,90.54
2019-01-29T09:47:11.759Z,91.27
2019-01-29T09:48:11.764Z,91.02
2019-01-29T09:49:11.736Z,91.06
2019-01-29T09:50:11.767Z,91.06
2019-01-29T09:51:11.717Z,90.64
2019-01-29T09:52:11.701Z,91.37
2019-01-29T09:53:11.708Z,91.52
2019-01-29T09:54:11.687Z,92.21
2019-01-29T09:55:13.541Z,91.89
2019-01-29T09:56:11.748Z,92.10
2019-01-29T09:57:11.677Z,91.37
2019-01-29T09:58:11.641Z,91.58
2019-01-29T09:59:11.644Z,91.27
2019-01-29T10:00:11.618Z,90.70
2019-01-29T10:01:11.605Z,91.12
2019-01-29T10:02:11.630Z,90.70
2019-01-29T10:03:11.588Z,90.50
2019-01-29T10:04:11.572Z,90.25
2019-01-29T10:05:11.584Z,90.25
2019-01-29T10:06:11.552Z,90.10
2019-01-29T10:07:11.544Z,90.10
2019-01-29T10:08:11.581Z,90.10
2019-01-29T10:09:11.526Z,89.27
2019-01-29T10:10:11.510Z,88.64
2019-01-29T10:11:11.507Z,89.06
2019-01-29T10:12:11.493Z,89.58
2019-01-29T10:13:11.474Z,89.17
2019-01-29T10:14:11.463Z,88.85
2019-01-29T10:15:11.451Z,88.23
2019-01-29T10:16:11.503Z,88.50
2019-01-29T10:17:11.427Z,88.92
2019-01-29T10:18:11.422Z,88.81
2019-01-29T10:19:11.405Z,88.40
2019-01-29T10:20:11.397Z,88.25
2019-01-29T10:21:11.413Z,87.88
2019-01-29T10:22:11.374Z,87.56
2019-01-29T10:23:11.378Z,87.04
2019-01-29T10:24:11.349Z,87.46
2019-01-29T10:25:11.340Z,88.04
2019-01-29T10:26:11.352Z,87.04
2019-01-29T10:27:11.335Z,86.52
2019-01-29T10:28:11.307Z,86.80
2019-01-29T10:29:11.300Z,87.42
2019-01-29T10:30:11.308Z,86.07
2019-01-29T10:31:11.277Z,86.90
2019-01-29T10:32:11.280Z,86.27
2019-01-29T10:33:11.252Z,86.63
2019-01-29T10:34:11.311Z,86.38
2019-01-29T10:35:11.231Z,86.38
2019-01-29T10:36:11.254Z,86.11
2019-01-29T10:37:11.211Z,86.49
2019-01-29T10:38:11.207Z,87.52
2019-01-29T10:39:11.194Z,87.38
2019-01-29T10:40:11.176Z,86.19
2019-01-29T10:41:11.175Z,85.78
2019-01-29T10:42:11.187Z,85.41
2019-01-29T10:43:11.157Z,85.78
2019-01-29T10:44:11.130Z,84.58
2019-01-29T10:45:11.118Z,85.78
2019-01-29T10:46:11.109Z,85.78
2019-01-29T10:47:11.477Z,85.47
2019-01-29T10:48:11.138Z,84.16
2019-01-29T10:49:11.091Z,84.61
2019-01-29T10:50:11.066Z,85.75
2019-01-29T10:51:11.068Z,85.75
2019-01-29T10:52:11.047Z,86.07
2019-01-29T10:53:11.033Z,85.44
2019-01-29T10:54:11.040Z,86.17
2019-01-29T10:55:11.013Z,86.34
2019-01-29T10:56:10.998Z,86.34
2019-01-29T10:57:11.010Z,85.68
2019-01-29T10:58:11.071Z,85.68
2019-01-29T10:59:10.964Z,85.16
2019-01-29T11:00:12.231Z,84.22
2019-01-29T11:01:10.956Z,85.47
2019-01-29T11:02:10.932Z,85.16
2019-01-29T11:03:10.922Z,83.81
2019-01-29T11:04:10.911Z,84.22
2019-01-29T11:05:10.901Z,84.22
2019-01-29T11:06:10.964Z,84.64
2019-01-29T11:07:10.897Z,83.84
2019-01-29T11:08:10.873Z,84.05
2019-01-29T11:09:10.977Z,83.64
2019-01-29T11:10:10.849Z,84.01
2019-01-29T11:11:10.843Z,84.05
2019-01-29T11:12:10.885Z,84.47
2019-01-29T11:13:10.830Z,85.47
2019-01-29T11:14:10.807Z,85.05
2019-01-29T11:15:10.820Z,84.58
2019-01-29T11:16:10.782Z,83.81
2019-01-29T11:17:10.769Z,84.22
2019-01-29T11:18:10.792Z,83.70
2019-01-29T11:19:10.778Z,83.70
2019-01-29T11:20:10.766Z,83.91
2019-01-29T11:21:10.727Z,84.74
2019-01-29T11:22:10.722Z,83.81
2019-01-29T11:23:10.701Z,83.70
2019-01-29T11:24:10.691Z,82.98
2019-01-29T11:25:10.695Z,83.43
2019-01-29T11:26:10.705Z,84.27
2019-01-29T11:27:10.662Z,83.64
2019-01-29T11:28:10.647Z,83.91
2019-01-29T11:29:10.636Z,83.87
2019-01-29T11:30:10.626Z,83.15
2019-01-29T11:31:10.629Z,83.04
2019-01-29T11:32:10.637Z,82.32
2019-01-29T11:33:10.596Z,81.59
2019-01-29T11:34:10.584Z,82.42
2019-01-29T11:35:10.572Z,81.76
2019-01-29T11:36:10.581Z,81.28
2019-01-29T11:37:12.081Z,81.24
2019-01-29T11:38:10.576Z,80.93
2019-01-29T11:39:10.563Z,81.24
2019-01-29T11:40:10.538Z,80.89
2019-01-29T11:41:10.502Z,80.89
2019-01-29T11:42:10.519Z,80.16
2019-01-29T11:43:10.504Z,79.44
2019-01-29T11:44:10.473Z,79.75
2019-01-29T11:45:10.500Z,80.27
2019-01-29T11:46:10.457Z,80.16
2019-01-29T11:47:10.436Z,78.99
2019-01-29T11:48:10.430Z,78.16
2019-01-29T11:49:10.430Z,78.27
2019-01-29T11:50:10.410Z,77.95
2019-01-29T11:51:10.427Z,78.85
2019-01-29T11:52:11.272Z,78.89
2019-01-29T11:53:10.372Z,77.02
2019-01-29T11:54:10.361Z,77.64
2019-01-29T11:55:10.360Z,78.27
2019-01-29T11:56:10.336Z,77.61
2019-01-29T11:57:10.393Z,78.12
2019-01-29T11:58:10.335Z,77.09
2019-01-29T11:59:10.322Z,78.37
2019-01-29T12:00:10.295Z,77.64
2019-01-29T12:01:10.309Z,77.02
2019-01-29T12:02:10.273Z,77.23
2019-01-29T12:03:10.270Z,77.85
2019-01-29T12:04:10.285Z,78.27
2019-01-29T12:05:10.243Z,78.16
2019-01-29T12:06:10.226Z,77.75
2019-01-29T12:07:10.231Z,77.33
2019-01-29T12:08:10.207Z,78.09
2019-01-29T12:09:10.191Z,76.95
2019-01-29T12:10:10.223Z,76.95
2019-01-29T12:11:10.197Z,76.54
2019-01-29T12:12:10.164Z,77.26
2019-01-29T12:13:10.147Z,75.67
2019-01-29T12:14:10.142Z,75.26
2019-01-29T12:15:10.127Z,75.05
2019-01-29T12:16:10.144Z,75.67
2019-01-29T12:17:10.120Z,75.67
2019-01-29T12:18:10.101Z,74.11
2019-01-29T12:19:10.084Z,75.19
2019-01-29T12:20:10.071Z,74.29
2019-01-29T12:21:10.059Z,75.33
2019-01-29T12:22:10.080Z,75.33
2019-01-29T12:23:10.048Z,75.02
2019-01-29T12:24:11.256Z,74.71
2019-01-29T12:25:10.022Z,74.77
2019-01-29T12:26:13.269Z,75.50
2019-01-29T12:27:09.997Z,74.36
2019-01-29T12:28:09.998Z,75.15
2019-01-29T12:29:10.010Z,74.36
2019-01-29T12:30:09.960Z,72.98
2019-01-29T12:31:09.973Z,74.22
2019-01-29T12:32:09.945Z,72.67
2019-01-29T12:33:09.933Z,72.77
2019-01-29T12:34:09.928Z,72.67
2019-01-29T12:35:09.928Z,72.63
2019-01-29T12:36:09.933Z,72.56
2019-01-29T12:37:09.884Z,71.91
2019-01-29T12:38:09.878Z,71.59
2019-01-29T12:39:09.890Z,70.67
2019-01-29T12:40:09.906Z,71.80
2019-01-29T12:41:09.839Z,71.59
2019-01-29T12:42:09.862Z,71.18
2019-01-29T12:43:09.818Z,72.05
2019-01-29T12:44:09.807Z,71.94
2019-01-29T12:45:09.808Z,71.63
2019-01-29T12:46:09.788Z,73.08
2019-01-29T12:47:09.771Z,72.22
2019-01-29T12:48:09.786Z,70.80
2019-01-29T12:49:09.750Z,72.05
2019-01-29T12:50:09.757Z,71.22
2019-01-29T12:51:09.725Z,71.97
2019-01-29T12:52:09.715Z,72.70